AirNav   Everest Fuels
 
 1552 users online  

9AL7 JK Farms LLC Heliport
Shorter, Alabama, USA

GOING TO SHORTER?


FAA INFORMATION EFFECTIVE 10 SEPTEMBER 2020

Location

FAA Identifier: 9AL7
Lat/Long: 32-21-55.0000N 085-48-43.0000W
32-21.916667N 085-48.716667W
32.3652778,-85.8119444
(estimated)
Elevation: 287 ft. / 87 m (estimated)
From city: 8 miles SE of SHORTER, AL
Time zone: UTC -5 (UTC -6 during Standard Time)
Zip code: 36039

Heliport Operations

Heliport use: Private use. Permission required prior to landing
Activation date: 07/2016
Control tower: no
ARTCC: ATLANTA CENTER
FSS: ANNISTON FLIGHT SERVICE STATION
Attendance: 
Segmented circle: no

Nearby radio navigation aids

VOR radial/distance  VOR name  Freq  Var
TGEr223/10.2TUSKEGEE VOR/DME117.3002E
MGMr069/27.1MONTGOMERY VORTAC112.1003E

 
NDB name  Hdg/Dist  Freq  Var  ID
BLOOD029/35.436504WTOI - --- ..

Heliport Services

Runway Information

Helipad H1

Dimensions: 65 x 65 ft. / 20 x 20 m
Surface: turf
Latitude: 32-21.916667N
Longitude: 085-48.716667W
Elevation: 287.0 ft.
Traffic pattern: leftleft

Heliport Ownership and Management from official FAA records

Ownership: Privately-owned
Owner: JOEL & KATIE YARBROUGH
1191 BELL QUARTERS RD
SHORTER, AL 36075
Phone 334-455-4564
Manager: JOEL & KATIE YARBROUGH
1191 BELL QUARTERS RD
SHORTER, AL 36075
Phone 334-455-4564

Additional Remarks

FOR CD CTC ATLANTA ARTCC AT 770-210-7692.

Instrument Procedures

There are no published instrument procedures at 9AL7.

Some nearby airports with instrument procedures:

06A - Moton Field Municipal Airport (9 nm NE)
KAUO - Auburn University Regional Airport (24 nm NE)
08A - Wetumpka Municipal Airport (28 nm W)
KMXF - Maxwell Air Force Base (28 nm W)
KMGM - Montgomery Regional Airport (Dannelly Field) (30 nm W)
 
Loc | Ops | Rwys | IFR | FBO | Links
Com | Nav | Svcs | Stats | Notes
Aerial photo
No photo
 
Airport distance calculator
Flying to JK Farms LLC Heliport? Find the distance to fly.

From to 9AL7

Sunrise and sunset
Times for 29-Sep-2020
 Local
(UTC-5)
 Zulu
(UTC)
Morning civil twilight06:1311:13
Sunrise06:3811:38
Sunset18:2923:29
Evening civil twilight18:5323:53

Current date and time
Zulu (UTC)  29-Sep-2020 21:18:42
Local (UTC-5)  29-Sep-2020 16:18:42
 
METAR
KAUO 
25nm NE 
292056Z AUTO 31008KT 10SM SCT017 16/13 A2993 RMK AO2 RAB38E48 SLP154 P0000 60000 T01610133 55002
KMXF 
28nm W 
292056Z AUTO 29003KT 10SM FEW044 SCT055 BKN065 20/13 A2992 RMK AO2 SLP134 60000 T02010126 56017
KMGM 
30nm W 
292053Z 30010KT 10SM FEW033 SCT060 22/12 A2992 RMK AO2 SLP130 60000 T02170122 58009
KTOI 
33nm S 
292053Z AUTO 32008KT 10SM FEW022 19/13 A2993 RMK AO2 RAB03E15 SLP132 P0000 60001 T01890133 56010
KALX 
34nm N 
292055Z AUTO 31004KT 10SM SCT030 SCT047 SCT055 18/13 A2992 RMK AO2 T01830128
K1A9 
36nm W 
292055Z AUTO 30009KT 10SM SCT044 SCT065 21/12 A2992 RMK AO2 T02070115
KLSF 
41nm E 
292056Z AUTO 29007KT 10SM FEW014 OVC100 17/14 A2989 RMK AO2 RAB1959E00DZB00E10 SLP126 P0000 60001 T01670136 55014 CHINO RWY15 $
KEUF 
43nm SE 
291958Z AUTO VRB05KT 10SM OVC090 A2991 RMK AO2 SLPNO
KCSG 
45nm E 
292051Z 32005KT 10SM SCT012 OVC100 17/14 A2989 RMK AO2 RAB1958E09 SLP118 P0000 60001 T01670139 56015
TAF
KMXF 
28nm W 
291100Z 2911/3017 33006KT 9999 BKN060 QNH2989INS BECMG 2915/2916 33012G18KT 8000 -SHRA BKN020 QNH2990INS BECMG 2919/2920 31012G18KT 9999 NSW BKN035 QNH2988INS BECMG 2923/2924 30009KT 9999 SCT040 QNH2993INS TX22/2921Z TN12/3011Z
KMGM 
30nm W 
291720Z 2918/3018 33010KT P6SM SHRA OVC090 FM292300 32011KT P6SM BKN100 FM301300 28005KT P6SM SKC
KTOI 
33nm S 
291720Z 2918/3018 34011KT P6SM SHRA OVC070 FM292100 33010KT P6SM VCSH BKN100 FM300000 31005KT P6SM BKN250
NOTAMs
Click for the latest NOTAMs
NOTAMs are issued by the DoD/FAA and will open in a separate window not controlled by AirNav.

 

 
 

Would you like to see your business listed on this page?

 If your business provides an interesting product or service to pilots, flight crews, aircraft, or users of the JK Farms LLC Heliport, you should consider listing it here.  To start the listing process, click on the button below
 
Add a business
 

Other Pages about JK Farms LLC Heliport

Update a link
 
Copyright © AirNav, LLC. All rights reserved. Privacy Policy  Contact